sensor_id;sensor_type;location;lat;lon;timestamp;pressure;altitude;pressure_sealevel;temperature;humidity
27623;BME280;15041;45.334;5.622;2024-01-30T00:00:41;100828.53;;;11.18;72.64
27623;BME280;15041;45.334;5.622;2024-01-30T00:03:11;100825.25;;;11.16;72.52
27623;BME280;15041;45.334;5.622;2024-01-30T00:05:38;100830.06;;;11.14;72.36
27623;BME280;15041;45.334;5.622;2024-01-30T00:08:07;100830.06;;;11.14;71.98
27623;BME280;15041;45.334;5.622;2024-01-30T00:10:34;100832.16;;;11.12;72.21
27623;BME280;15041;45.334;5.622;2024-01-30T00:13:02;100830.06;;;11.14;72.14
27623;BME280;15041;45.334;5.622;2024-01-30T00:15:29;100837.53;;;11.12;72.56
27623;BME280;15041;45.334;5.622;2024-01-30T00:17:58;100830.50;;;11.11;72.81
27623;BME280;15041;45.334;5.622;2024-01-30T00:20:26;100827.19;;;11.09;73.08
27623;BME280;15041;45.334;5.622;2024-01-30T00:22:53;100822.84;;;11.08;73.18
27623;BME280;15041;45.334;5.622;2024-01-30T00:25:20;100823.44;;;11.10;73.66
27623;BME280;15041;45.334;5.622;2024-01-30T00:27:47;100828.84;;;11.10;73.51
27623;BME280;15041;45.334;5.622;2024-01-30T00:30:15;100821.78;;;11.09;72.97
27623;BME280;15041;45.334;5.622;2024-01-30T00:32:42;100821.19;;;11.07;73.50
27623;BME280;15041;45.334;5.622;2024-01-30T00:35:09;100828.69;;;11.05;73.11
27623;BME280;15041;45.334;5.622;2024-01-30T00:37:38;100822.25;;;11.06;73.00
27623;BME280;15041;45.334;5.622;2024-01-30T00:40:06;100827.66;;;11.06;72.90
27623;BME280;15041;45.334;5.622;2024-01-30T00:42:33;100820.56;;;11.05;72.91
27623;BME280;15041;45.334;5.622;2024-01-30T00:45:00;100818.94;;;11.04;72.38
27623;BME280;15041;45.334;5.622;2024-01-30T00:47:28;100826.44;;;11.02;72.35
27623;BME280;15041;45.334;5.622;2024-01-30T00:49:55;100820.19;;;11.01;72.34
27623;BME280;15041;45.334;5.622;2024-01-30T00:52:22;100821.03;;;11.02;72.38
27623;BME280;15041;45.334;5.622;2024-01-30T00:54:50;100824.78;;;11.01;71.17
27623;BME280;15041;45.334;5.622;2024-01-30T00:57:18;100828.53;;;11.00;71.28
27623;BME280;15041;45.334;5.622;2024-01-30T00:59:45;100831.84;;;11.02;70.71
27623;BME280;15041;45.334;5.622;2024-01-30T01:02:13;100831.44;;;10.98;71.51
27623;BME280;15041;45.334;5.622;2024-01-30T01:04:42;100836.03;;;10.98;71.10
27623;BME280;15041;45.334;5.622;2024-01-30T01:07:10;100826.88;;;10.99;70.88
27623;BME280;15041;45.334;5.622;2024-01-30T01:09:37;100833.34;;;10.98;71.32
27623;BME280;15041;45.334;5.622;2024-01-30T01:12:06;100836.84;;;10.98;71.41
27623;BME280;15041;45.334;5.622;2024-01-30T01:14:33;100829.59;;;10.99;71.55
27623;BME280;15041;45.334;5.622;2024-01-30T01:17:02;100821.91;;;10.96;72.05
27623;BME280;15041;45.334;5.622;2024-01-30T01:19:29;100832.72;;;10.96;73.19
27623;BME280;15041;45.334;5.622;2024-01-30T01:21:56;100825.47;;;10.96;73.07
27623;BME280;15041;45.334;5.622;2024-01-30T01:24:23;100827.31;;;10.96;73.07
27623;BME280;15041;45.334;5.622;2024-01-30T01:26:51;100832.13;;;10.94;72.61
27623;BME280;15041;45.334;5.622;2024-01-30T01:29:20;100843.53;;;10.96;72.44
27623;BME280;15041;45.334;5.622;2024-01-30T01:31:54;100835.28;;;10.91;74.44
27623;BME280;15041;45.334;5.622;2024-01-30T01:34:24;100833.19;;;10.93;75.08
27623;BME280;15041;45.334;5.622;2024-01-30T01:36:51;100829.44;;;10.94;75.13
27623;BME280;15041;45.334;5.622;2024-01-30T01:39:22;100826.75;;;10.94;74.01
27623;BME280;15041;45.334;5.622;2024-01-30T01:41:50;100831.91;;;10.95;73.58
27623;BME280;15041;45.334;5.622;2024-01-30T01:44:17;100823.19;;;10.93;73.54
27623;BME280;15041;45.334;5.622;2024-01-30T01:46:46;100829.88;;;10.91;75.53
27623;BME280;15041;45.334;5.622;2024-01-30T01:49:14;100817.00;;;10.93;74.54
27623;BME280;15041;45.334;5.622;2024-01-30T01:51:42;100820.72;;;10.92;74.18
27623;BME280;15041;45.334;5.622;2024-01-30T01:54:10;100819.69;;;10.93;73.31
27623;BME280;15041;45.334;5.622;2024-01-30T01:56:38;100822.97;;;10.95;73.31
27623;BME280;15041;45.334;5.622;2024-01-30T01:59:06;100821.56;;;10.92;73.65
27623;BME280;15041;45.334;5.622;2024-01-30T02:01:36;100824.03;;;10.94;73.71
27623;BME280;15041;45.334;5.622;2024-01-30T02:04:06;100819.06;;;10.91;73.83
27623;BME280;15041;45.334;5.622;2024-01-30T02:06:35;100822.38;;;10.93;73.91
27623;BME280;15041;45.334;5.622;2024-01-30T02:09:02;100827.78;;;10.93;73.82
27623;BME280;15041;45.334;5.622;2024-01-30T02:11:30;100819.69;;;10.93;74.19
27623;BME280;15041;45.334;5.622;2024-01-30T02:14:02;100819.69;;;10.93;74.34
27623;BME280;15041;45.334;5.622;2024-01-30T02:16:29;100817.00;;;10.93;74.45
27623;BME280;15041;45.334;5.622;2024-01-30T02:18:56;100830.25;;;10.94;74.64
27623;BME280;15041;45.334;5.622;2024-01-30T02:21:25;100831.53;;;10.92;74.41
27623;BME280;15041;45.334;5.622;2024-01-30T02:23:54;100841.28;;;10.93;74.72
27623;BME280;15041;45.334;5.622;2024-01-30T02:26:22;100844.66;;;10.88;75.55
27623;BME280;15041;45.334;5.622;2024-01-30T02:28:49;100844.66;;;10.88;75.74
27623;BME280;15041;45.334;5.622;2024-01-30T02:31:17;100844.44;;;10.90;75.40
27623;BME280;15041;45.334;5.622;2024-01-30T02:33:43;100835.28;;;10.91;75.54
27623;BME280;15041;45.334;5.622;2024-01-30T02:36:10;100823.88;;;10.89;75.77
27623;BME280;15041;45.334;5.622;2024-01-30T02:38:39;100831.16;;;10.88;75.68
27623;BME280;15041;45.334;5.622;2024-01-30T02:41:07;100816.81;;;10.88;74.54
27623;BME280;15041;45.334;5.622;2024-01-30T02:43:34;100819.97;;;10.85;74.82
27623;BME280;15041;45.334;5.622;2024-01-30T02:46:01;100827.03;;;10.86;74.49
27623;BME280;15041;45.334;5.622;2024-01-30T02:48:28;100814.56;;;10.85;74.68
27623;BME280;15041;45.334;5.622;2024-01-30T02:50:56;100824.75;;;10.83;75.64
27623;BME280;15041;45.334;5.622;2024-01-30T02:53:23;100818.31;;;10.84;75.88
27623;BME280;15041;45.334;5.622;2024-01-30T02:55:52;100812.91;;;10.84;76.47
27623;BME280;15041;45.334;5.622;2024-01-30T02:58:19;100816.66;;;10.83;76.10
27623;BME280;15041;45.334;5.622;2024-01-30T03:00:46;100818.31;;;10.84;74.90
27623;BME280;15041;45.334;5.622;2024-01-30T03:03:13;100822.06;;;10.83;75.24
27623;BME280;15041;45.334;5.622;2024-01-30T03:05:41;100818.78;;;10.81;75.41
27623;BME280;15041;45.334;5.622;2024-01-30T03:08:08;100827.47;;;10.83;74.98
27623;BME280;15041;45.334;5.622;2024-01-30T03:10:35;100825.81;;;10.82;73.95
27623;BME280;15041;45.334;5.622;2024-01-30T03:13:04;100832.84;;;10.83;74.01
27623;BME280;15041;45.334;5.622;2024-01-30T03:15:32;100830.38;;;10.81;72.96
27623;BME280;15041;45.334;5.622;2024-01-30T03:17:59;100833.91;;;10.82;73.59
27623;BME280;15041;45.334;5.622;2024-01-30T03:20:26;100829.56;;;10.81;73.49
27623;BME280;15041;45.334;5.622;2024-01-30T03:22:54;100827.09;;;10.79;74.29
27623;BME280;15041;45.334;5.622;2024-01-30T03:25:21;100833.28;;;10.80;74.26
27623;BME280;15041;45.334;5.622;2024-01-30T03:27:48;100821.91;;;10.78;74.01
27623;BME280;15041;45.334;5.622;2024-01-30T03:30:18;100822.50;;;10.80;74.29
27623;BME280;15041;45.334;5.622;2024-01-30T03:32:45;100817.09;;;10.80;73.72
27623;BME280;15041;45.334;5.622;2024-01-30T03:35:12;100822.13;;;10.76;73.62
27623;BME280;15041;45.334;5.622;2024-01-30T03:37:39;100822.56;;;10.73;74.56
27623;BME280;15041;45.334;5.622;2024-01-30T03:40:07;100825.03;;;10.75;74.59
27623;BME280;15041;45.334;5.622;2024-01-30T03:42:35;100818.00;;;10.74;75.01
27623;BME280;15041;45.334;5.622;2024-01-30T03:45:03;100823.41;;;10.74;74.82
27623;BME280;15041;45.334;5.622;2024-01-30T03:47:33;100827.97;;;10.73;74.42
27623;BME280;15041;45.334;5.622;2024-01-30T03:50:00;100828.81;;;10.74;75.03
27623;BME280;15041;45.334;5.622;2024-01-30T03:52:27;100827.16;;;10.73;74.49
27623;BME280;15041;45.334;5.622;2024-01-30T03:54:54;100824.66;;;10.71;74.62
27623;BME280;15041;45.334;5.622;2024-01-30T03:57:21;100823.84;;;10.71;74.33
27623;BME280;15041;45.334;5.622;2024-01-30T03:59:48;100826.78;;;10.69;74.18
27623;BME280;15041;45.334;5.622;2024-01-30T04:02:15;100823.84;;;10.71;73.50
27623;BME280;15041;45.334;5.622;2024-01-30T04:04:45;100830.50;;;10.68;73.82
27623;BME280;15041;45.334;5.622;2024-01-30T04:07:12;100823.84;;;10.71;74.60
27623;BME280;15041;45.334;5.622;2024-01-30T04:09:40;100825.94;;;10.69;74.79
27623;BME280;15041;45.334;5.622;2024-01-30T04:12:07;100829.69;;;10.68;74.01
27623;BME280;15041;45.334;5.622;2024-01-30T04:14:34;100829.69;;;10.68;74.30
27623;BME280;15041;45.334;5.622;2024-01-30T04:17:02;100833.44;;;10.67;74.84
27623;BME280;15041;45.334;5.622;2024-01-30T04:19:29;100831.78;;;10.66;74.88
27623;BME280;15041;45.334;5.622;2024-01-30T04:21:58;100833.06;;;10.63;74.89
27623;BME280;15041;45.334;5.622;2024-01-30T04:24:25;100827.66;;;10.63;75.66
27623;BME280;15041;45.334;5.622;2024-01-30T04:26:52;100840.94;;;10.65;75.25
27623;BME280;15041;45.334;5.622;2024-01-30T04:29:20;100844.06;;;10.62;75.76
27623;BME280;15041;45.334;5.622;2024-01-30T04:31:48;100842.00;;;10.64;75.41
27623;BME280;15041;45.334;5.622;2024-01-30T04:34:16;100843.84;;;10.63;75.27
27623;BME280;15041;45.334;5.622;2024-01-30T04:36:44;100850.97;;;10.58;76.44
27623;BME280;15041;45.334;5.622;2024-01-30T04:39:13;100842.41;;;10.61;75.83
27623;BME280;15041;45.334;5.622;2024-01-30T04:41:40;100840.56;;;10.61;75.46
27623;BME280;15041;45.334;5.622;2024-01-30T04:44:08;100847.81;;;10.61;75.01
27623;BME280;15041;45.334;5.622;2024-01-30T04:46:35;100838.09;;;10.60;74.85
27623;BME280;15041;45.334;5.622;2024-01-30T04:49:02;100847.00;;;10.60;75.06
27623;BME280;15041;45.334;5.622;2024-01-30T04:51:30;100845.13;;;10.61;74.05
27623;BME280;15041;45.334;5.622;2024-01-30T04:53:57;100838.09;;;10.60;74.33
27623;BME280;15041;45.334;5.622;2024-01-30T04:56:26;100850.97;;;10.58;75.28
27623;BME280;15041;45.334;5.622;2024-01-30T04:58:54;100847.66;;;10.56;74.93
27623;BME280;15041;45.334;5.622;2024-01-30T05:01:21;100846.03;;;10.55;75.00
27623;BME280;15041;45.334;5.622;2024-01-30T05:03:49;100850.59;;;10.54;75.51
27623;BME280;15041;45.334;5.622;2024-01-30T05:06:24;100846.03;;;10.55;74.83
27623;BME280;15041;45.334;5.622;2024-01-30T05:08:52;100844.34;;;10.54;75.23
27623;BME280;15041;45.334;5.622;2024-01-30T05:11:19;100858.91;;;10.53;74.82
27623;BME280;15041;45.334;5.622;2024-01-30T05:13:48;100848.53;;;10.50;76.78
27623;BME280;15041;45.334;5.622;2024-01-30T05:16:15;100855.59;;;10.51;75.84
27623;BME280;15041;45.334;5.622;2024-01-30T05:18:42;100846.88;;;10.49;75.39
27623;BME280;15041;45.334;5.622;2024-01-30T05:21:10;100848.53;;;10.50;76.09
27623;BME280;15041;45.334;5.622;2024-01-30T05:23:38;100857.69;;;10.49;75.22
27623;BME280;15041;45.334;5.622;2024-01-30T05:26:07;100856.88;;;10.48;75.73
27623;BME280;15041;45.334;5.622;2024-01-30T05:28:37;100861.44;;;10.48;75.98
27623;BME280;15041;45.334;5.622;2024-01-30T05:31:05;100861.44;;;10.48;75.10
27623;BME280;15041;45.334;5.622;2024-01-30T05:33:32;100866.22;;;10.46;74.82
27623;BME280;15041;45.334;5.622;2024-01-30T05:36:00;100861.88;;;10.45;74.84
27623;BME280;15041;45.334;5.622;2024-01-30T05:38:30;100865.41;;;10.45;74.96
27623;BME280;15041;45.334;5.622;2024-01-30T05:40:59;100862.91;;;10.44;74.67
27623;BME280;15041;45.334;5.622;2024-01-30T05:43:26;100872.06;;;10.43;74.84
27623;BME280;15041;45.334;5.622;2024-01-30T05:45:53;100860.66;;;10.41;74.38
27623;BME280;15041;45.334;5.622;2024-01-30T05:48:21;100867.72;;;10.42;75.11
27623;BME280;15041;45.334;5.622;2024-01-30T05:50:49;100867.09;;;10.40;75.23
27623;BME280;15041;45.334;5.622;2024-01-30T05:53:16;100876.25;;;10.39;74.67
27623;BME280;15041;45.334;5.622;2024-01-30T05:55:44;100878.94;;;10.39;75.21
27623;BME280;15041;45.334;5.622;2024-01-30T05:58:11;100874.59;;;10.38;75.64
27623;BME280;15041;45.334;5.622;2024-01-30T06:00:38;100881.66;;;10.39;75.92
27623;BME280;15041;45.334;5.622;2024-01-30T06:03:05;100882.69;;;10.38;76.47
27623;BME280;15041;45.334;5.622;2024-01-30T06:05:35;100894.31;;;10.38;75.58
27623;BME280;15041;45.334;5.622;2024-01-30T06:08:02;100884.56;;;10.37;76.16
27623;BME280;15041;45.334;5.622;2024-01-30T06:10:29;100884.78;;;10.36;75.81
27623;BME280;15041;45.334;5.622;2024-01-30T06:12:56;100891.81;;;10.37;75.71
27623;BME280;15041;45.334;5.622;2024-01-30T06:15:25;100881.47;;;10.34;75.47
27623;BME280;15041;45.334;5.622;2024-01-30T06:17:52;100885.81;;;10.35;75.53
27623;BME280;15041;45.334;5.622;2024-01-30T06:20:19;100888.94;;;10.32;75.34
27623;BME280;15041;45.334;5.622;2024-01-30T06:22:48;100891.47;;;10.27;75.65
27623;BME280;15041;45.334;5.622;2024-01-30T06:25:15;100889.38;;;10.29;74.59
27623;BME280;15041;45.334;5.622;2024-01-30T06:27:42;100900.16;;;10.29;75.48
27623;BME280;15041;45.334;5.622;2024-01-30T06:30:10;100893.13;;;10.28;75.74
27623;BME280;15041;45.334;5.622;2024-01-30T06:32:37;100893.59;;;10.25;74.81
27623;BME280;15041;45.334;5.622;2024-01-30T06:35:06;100902.69;;;10.24;73.20
27623;BME280;15041;45.334;5.622;2024-01-30T06:37:34;100902.69;;;10.24;72.85
27623;BME280;15041;45.334;5.622;2024-01-30T06:40:03;100901.06;;;10.23;72.41
27623;BME280;15041;45.334;5.622;2024-01-30T06:42:31;100899.41;;;10.22;73.41
27623;BME280;15041;45.334;5.622;2024-01-30T06:44:58;100894.44;;;10.19;72.65
27623;BME280;15041;45.334;5.622;2024-01-30T06:47:25;100901.94;;;10.17;72.30
27623;BME280;15041;45.334;5.622;2024-01-30T06:49:52;100897.81;;;10.14;72.30
27623;BME280;15041;45.334;5.622;2024-01-30T06:52:19;100906.09;;;10.13;72.58
27623;BME280;15041;45.334;5.622;2024-01-30T06:54:47;100904.44;;;10.12;72.77
27623;BME280;15041;45.334;5.622;2024-01-30T06:57:15;100905.69;;;10.09;72.11
27623;BME280;15041;45.334;5.622;2024-01-30T06:59:43;100900.50;;;10.08;72.86
27623;BME280;15041;45.334;5.622;2024-01-30T07:02:10;100910.28;;;10.09;72.30
27623;BME280;15041;45.334;5.622;2024-01-30T07:04:37;100911.09;;;10.09;73.25
27623;BME280;15041;45.334;5.622;2024-01-30T07:07:05;100911.09;;;10.09;73.56
27623;BME280;15041;45.334;5.622;2024-01-30T07:09:37;100921.28;;;10.07;73.71
27623;BME280;15041;45.334;5.622;2024-01-30T07:12:05;100922.72;;;10.03;73.97
27623;BME280;15041;45.334;5.622;2024-01-30T07:14:35;100924.38;;;10.04;74.57
27623;BME280;15041;45.334;5.622;2024-01-30T07:17:02;100925.25;;;10.05;74.59
27623;BME280;15041;45.334;5.622;2024-01-30T07:19:29;100926.06;;;9.99;73.87
27623;BME280;15041;45.334;5.622;2024-01-30T07:21:56;100933.97;;;9.94;73.89
27623;BME280;15041;45.334;5.622;2024-01-30T07:24:23;100937.72;;;9.93;74.75
27623;BME280;15041;45.334;5.622;2024-01-30T07:26:50;100939.38;;;9.94;73.96
27623;BME280;15041;45.334;5.622;2024-01-30T07:29:18;100943.09;;;9.93;74.16
27623;BME280;15041;45.334;5.622;2024-01-30T07:31:46;100952.25;;;9.92;74.65
27623;BME280;15041;45.334;5.622;2024-01-30T07:34:15;100948.91;;;9.90;75.23
27623;BME280;15041;45.334;5.622;2024-01-30T07:36:42;100946.00;;;9.91;74.11
27623;BME280;15041;45.334;5.622;2024-01-30T07:39:09;100953.09;;;9.86;73.95
27623;BME280;15041;45.334;5.622;2024-01-30T07:41:36;100948.75;;;9.85;74.57
27623;BME280;15041;45.334;5.622;2024-01-30T07:44:04;100949.78;;;9.84;73.87
27623;BME280;15041;45.334;5.622;2024-01-30T07:46:31;100957.88;;;9.84;73.65
27623;BME280;15041;45.334;5.622;2024-01-30T07:48:59;100961.84;;;9.75;74.83
27623;BME280;15041;45.334;5.622;2024-01-30T07:51:27;100960.63;;;9.71;75.94
27623;BME280;15041;45.334;5.622;2024-01-30T07:53:57;100959.34;;;9.80;75.10
27623;BME280;15041;45.334;5.622;2024-01-30T07:56:25;100962.66;;;9.82;74.40
27623;BME280;15041;45.334;5.622;2024-01-30T07:58:52;100965.97;;;9.84;74.90
27623;BME280;15041;45.334;5.622;2024-01-30T08:01:19;100967.63;;;9.85;75.28
27623;BME280;15041;45.334;5.622;2024-01-30T08:03:46;100972.16;;;9.84;75.28
27623;BME280;15041;45.334;5.622;2024-01-30T08:06:15;100973.00;;;9.85;75.71
27623;BME280;15041;45.334;5.622;2024-01-30T08:08:42;100966.56;;;8.77;83.53
27623;BME280;15041;45.334;5.622;2024-01-30T08:11:10;100973.97;;;8.42;88.99
27623;BME280;15041;45.334;5.622;2024-01-30T08:13:38;100966.81;;;8.15;90.90
27623;BME280;15041;45.334;5.622;2024-01-30T08:16:06;100972.41;;;8.14;92.37
27623;BME280;15041;45.334;5.622;2024-01-30T08:18:33;100979.63;;;8.07;93.67
27623;BME280;15041;45.334;5.622;2024-01-30T08:21:00;100976.94;;;8.07;94.56
27623;BME280;15041;45.334;5.622;2024-01-30T08:23:30;100971.94;;;8.04;94.78
27623;BME280;15041;45.334;5.622;2024-01-30T08:25:57;100973.03;;;8.16;95.16
27623;BME280;15041;45.334;5.622;2024-01-30T08:28:24;100970.09;;;8.04;97.55
27623;BME280;15041;45.334;5.622;2024-01-30T08:30:51;100958.97;;;7.33;100.00
27623;BME280;15041;45.334;5.622;2024-01-30T08:33:19;100956.03;;;7.62;100.00
27623;BME280;15041;45.334;5.622;2024-01-30T08:35:46;100964.03;;;7.15;100.00
27623;BME280;15041;45.334;5.622;2024-01-30T08:38:13;100958.75;;;7.68;100.00
27623;BME280;15041;45.334;5.622;2024-01-30T08:40:42;100957.25;;;8.00;100.00
27623;BME280;15041;45.334;5.622;2024-01-30T08:43:09;100958.09;;;8.07;100.00
27623;BME280;15041;45.334;5.622;2024-01-30T08:45:36;100958.09;;;8.07;100.00
27623;BME280;15041;45.334;5.622;2024-01-30T08:48:04;100955.84;;;8.17;98.79
27623;BME280;15041;45.334;5.622;2024-01-30T08:50:31;100953.16;;;8.17;95.89
27623;BME280;15041;45.334;5.622;2024-01-30T08:52:58;100959.56;;;8.16;93.99
27623;BME280;15041;45.334;5.622;2024-01-30T08:55:25;100961.50;;;8.22;92.44
27623;BME280;15041;45.334;5.622;2024-01-30T08:57:56;100958.84;;;8.35;91.27
27623;BME280;15041;45.334;5.622;2024-01-30T09:00:23;100963.97;;;8.30;90.54
27623;BME280;15041;45.334;5.622;2024-01-30T09:02:50;100966.06;;;8.28;91.26
27623;BME280;15041;45.334;5.622;2024-01-30T09:05:17;100975.97;;;8.21;92.46
27623;BME280;15041;45.334;5.622;2024-01-30T09:07:45;100972.06;;;8.30;92.79
27623;BME280;15041;45.334;5.622;2024-01-30T09:10:13;100981.75;;;8.18;94.56
27623;BME280;15041;45.334;5.622;2024-01-30T09:12:40;100984.34;;;8.58;94.65
27623;BME280;15041;45.334;5.622;2024-01-30T09:15:09;100987.44;;;8.62;93.45
27623;BME280;15041;45.334;5.622;2024-01-30T09:17:37;100988.06;;;8.64;93.14
27623;BME280;15041;45.334;5.622;2024-01-30T09:20:05;100989.09;;;8.63;94.37
27623;BME280;15041;45.334;5.622;2024-01-30T09:22:33;100990.59;;;9.24;89.60
27623;BME280;15041;45.334;5.622;2024-01-30T09:25:00;100984.34;;;11.06;80.25
27623;BME280;15041;45.334;5.622;2024-01-30T09:27:27;100989.06;;;13.48;66.11
27623;BME280;15041;45.334;5.622;2024-01-30T09:29:54;100979.56;;;14.64;57.36
27623;BME280;15041;45.334;5.622;2024-01-30T09:32:23;100980.78;;;14.85;52.99
27623;BME280;15041;45.334;5.622;2024-01-30T09:34:50;100992.38;;;13.62;59.66
27623;BME280;15041;45.334;5.622;2024-01-30T09:37:18;100988.69;;;12.69;64.19
27623;BME280;15041;45.334;5.622;2024-01-30T09:39:46;100998.69;;;11.73;69.71
27623;BME280;15041;45.334;5.622;2024-01-30T09:42:20;100998.84;;;11.36;70.92
27623;BME280;15041;45.334;5.622;2024-01-30T09:44:51;100996.69;;;11.20;72.09
27623;BME280;15041;45.334;5.622;2024-01-30T09:47:20;101007.72;;;10.63;73.76
27623;BME280;15041;45.334;5.622;2024-01-30T09:49:50;100999.16;;;12.65;68.81
27623;BME280;15041;45.334;5.622;2024-01-30T09:52:18;101001.13;;;15.15;54.29
27623;BME280;15041;45.334;5.622;2024-01-30T09:54:47;100993.78;;;15.65;51.46
27623;BME280;15041;45.334;5.622;2024-01-30T09:57:16;101002.53;;;17.06;47.36
27623;BME280;15041;45.334;5.622;2024-01-30T09:59:43;100996.38;;;16.89;46.44
27623;BME280;15041;45.334;5.622;2024-01-30T10:02:10;100993.50;;;15.83;49.68
27623;BME280;15041;45.334;5.622;2024-01-30T10:04:37;100994.94;;;15.03;52.70
27623;BME280;15041;45.334;5.622;2024-01-30T10:07:06;100995.28;;;15.23;52.87
27623;BME280;15041;45.334;5.622;2024-01-30T10:09:36;100994.31;;;14.68;54.41
27623;BME280;15041;45.334;5.622;2024-01-30T10:12:04;101003.06;;;14.42;55.61
27623;BME280;15041;45.334;5.622;2024-01-30T10:14:33;101005.31;;;13.94;57.42
27623;BME280;15041;45.334;5.622;2024-01-30T10:17:01;100997.56;;;13.40;59.74
27623;BME280;15041;45.334;5.622;2024-01-30T10:19:28;101005.59;;;13.35;61.33
27623;BME280;15041;45.334;5.622;2024-01-30T10:21:56;101004.88;;;13.51;60.66
27623;BME280;15041;45.334;5.622;2024-01-30T10:24:26;100997.75;;;13.96;58.65
27623;BME280;15041;45.334;5.622;2024-01-30T10:26:56;100999.44;;;13.74;59.70
27623;BME280;15041;45.334;5.622;2024-01-30T10:29:24;100998.22;;;13.93;60.18
27623;BME280;15041;45.334;5.622;2024-01-30T10:31:58;101003.06;;;14.42;57.70
27623;BME280;15041;45.334;5.622;2024-01-30T10:34:26;100981.63;;;15.02;55.01
27623;BME280;15041;45.334;5.622;2024-01-30T10:37:01;100979.03;;;14.79;55.18
27623;BME280;15041;45.334;5.622;2024-01-30T10:39:40;100991.78;;;14.22;59.44
27623;BME280;15041;45.334;5.622;2024-01-30T10:42:11;100975.13;;;14.75;57.18
27623;BME280;15041;45.334;5.622;2024-01-30T10:44:46;100977.16;;;14.23;58.63
27623;BME280;15041;45.334;5.622;2024-01-30T10:47:19;100980.06;;;14.33;59.35
27623;BME280;15041;45.334;5.622;2024-01-30T10:49:51;100963.19;;;14.59;58.04
27623;BME280;15041;45.334;5.622;2024-01-30T10:52:20;100963.78;;;14.61;58.19
27623;BME280;15041;45.334;5.622;2024-01-30T10:54:50;100966.31;;;14.23;60.01
27623;BME280;15041;45.334;5.622;2024-01-30T10:57:19;100972.28;;;13.74;63.37
27623;BME280;15041;45.334;5.622;2024-01-30T10:59:50;100960.75;;;14.46;60.09
27623;BME280;15041;45.334;5.622;2024-01-30T11:02:19;100956.50;;;14.50;60.47
27623;BME280;15041;45.334;5.622;2024-01-30T11:04:46;100957.38;;;13.88;63.86
27623;BME280;15041;45.334;5.622;2024-01-30T11:07:14;100960.44;;;14.03;63.62
27623;BME280;15041;45.334;5.622;2024-01-30T11:09:49;100955.81;;;14.04;62.83
27623;BME280;15041;45.334;5.622;2024-01-30T11:12:21;100951.81;;;14.06;63.83
27623;BME280;15041;45.334;5.622;2024-01-30T11:14:49;100936.94;;;14.37;62.98
27623;BME280;15041;45.334;5.622;2024-01-30T11:17:16;100941.19;;;14.61;61.19
27623;BME280;15041;45.334;5.622;2024-01-30T11:19:46;100936.84;;;14.60;60.18
27623;BME280;15041;45.334;5.622;2024-01-30T11:22:13;100938.88;;;14.53;61.10
27623;BME280;15041;45.334;5.622;2024-01-30T11:24:40;100927.84;;;14.43;62.35
27623;BME280;15041;45.334;5.622;2024-01-30T11:27:10;100932.34;;;14.37;58.04
27623;BME280;15041;45.334;5.622;2024-01-30T11:29:40;100936.94;;;13.97;59.65
27623;BME280;15041;45.334;5.622;2024-01-30T11:32:07;100939.72;;;13.74;60.77
27623;BME280;15041;45.334;5.622;2024-01-30T11:34:34;100930.78;;;13.62;60.93
27623;BME280;15041;45.334;5.622;2024-01-30T11:37:03;100919.09;;;14.01;59.13
27623;BME280;15041;45.334;5.622;2024-01-30T11:39:33;100915.38;;;14.30;56.93
27623;BME280;15041;45.334;5.622;2024-01-30T11:42:00;100914.47;;;13.85;59.05
27623;BME280;15041;45.334;5.622;2024-01-30T11:44:32;100914.97;;;14.38;57.73
27623;BME280;15041;45.334;5.622;2024-01-30T11:46:59;100907.44;;;14.73;55.69
27623;BME280;15041;45.334;5.622;2024-01-30T11:49:26;100912.34;;;14.43;56.84
27623;BME280;15041;45.334;5.622;2024-01-30T11:51:53;100900.34;;;14.72;56.05
27623;BME280;15041;45.334;5.622;2024-01-30T11:54:20;100908.91;;;14.97;55.66
27623;BME280;15041;45.334;5.622;2024-01-30T11:56:48;100906.09;;;15.09;55.13
27623;BME280;15041;45.334;5.622;2024-01-30T11:59:15;100902.47;;;15.03;54.53
27623;BME280;15041;45.334;5.622;2024-01-30T12:01:44;100902.41;;;15.15;54.91
27623;BME280;15041;45.334;5.622;2024-01-30T12:04:11;100901.72;;;15.24;52.90
27623;BME280;15041;45.334;5.622;2024-01-30T12:06:38;100896.66;;;15.49;53.73
27623;BME280;15041;45.334;5.622;2024-01-30T12:09:07;100893.00;;;15.60;53.87
27623;BME280;15041;45.334;5.622;2024-01-30T12:11:48;100900.06;;;16.04;53.96
27623;BME280;15041;45.334;5.622;2024-01-30T12:14:16;100882.78;;;15.13;54.69
27623;BME280;15041;45.334;5.622;2024-01-30T12:16:49;100884.53;;;14.36;57.53
27623;BME280;15041;45.334;5.622;2024-01-30T12:19:23;100889.50;;;14.89;56.78
27623;BME280;15041;45.334;5.622;2024-01-30T12:21:54;100887.69;;;15.70;55.32
27623;BME280;15041;45.334;5.622;2024-01-30T12:24:22;100886.28;;;15.89;53.73
27623;BME280;15041;45.334;5.622;2024-01-30T12:26:50;100882.78;;;16.15;52.76
27623;BME280;15041;45.334;5.622;2024-01-30T12:29:17;100886.38;;;16.47;50.86
27623;BME280;15041;45.334;5.622;2024-01-30T12:31:54;100884.25;;;16.01;51.36
27623;BME280;15041;45.334;5.622;2024-01-30T12:34:24;100874.56;;;16.68;49.49
27623;BME280;15041;45.334;5.622;2024-01-30T12:36:52;100877.47;;;16.88;49.32
27623;BME280;15041;45.334;5.622;2024-01-30T12:39:19;100877.88;;;17.07;48.96
27623;BME280;15041;45.334;5.622;2024-01-30T12:41:46;100877.94;;;16.80;49.39
27623;BME280;15041;45.334;5.622;2024-01-30T12:44:14;100869.56;;;16.29;50.80
27623;BME280;15041;45.334;5.622;2024-01-30T12:46:41;100861.81;;;16.74;50.32
27623;BME280;15041;45.334;5.622;2024-01-30T12:49:10;100869.31;;;16.93;49.42
27623;BME280;15041;45.334;5.622;2024-01-30T12:51:38;100864.59;;;15.99;51.76
27623;BME280;15041;45.334;5.622;2024-01-30T12:54:06;100865.47;;;16.26;51.26